Archival Weather

Basrah Intl

Basrah Intl, Iraq (ORMM)

Report from: Wednesday, September 28, 2022 7:00 PM UTC
Current time: Monday, June 17, 2024 9:43 AM UTC

Current weather – Weather history – Daily summaries
Weather forecast

Temperature23.0°C (73.4°F)
Dew point-4.0°C (24.8°F)
Winds 10 kts (5.1 m/s, 11.5 mph) West (260°)
Clouds Sky clear
Altimeter29.71 in.Hg (1006 mB)
Relative humidity16 %
Density altitude1,251 ft. (381 m)
Remarks Ceiling and visibility OK
No significant changes expected in the next two hours
Flight conditions Visual Meteorological Conditions
Raw dataORMM 281900Z 26010KT CAVOK 23/M04 Q1006 NOSIG
An error has occurred. This application may no longer respond until reloaded. Reload 🗙